sensor_id;sensor_type;location;lat;lon;timestamp;P1;durP1;ratioP1;P2;durP2;ratioP2
75700;SDS011;64321;48.796;44.740;2022-10-16T00:00:44;8.82;;;3.85;;
75700;SDS011;64321;48.796;44.740;2022-10-16T00:03:11;8.05;;;3.50;;
75700;SDS011;64321;48.796;44.740;2022-10-16T00:05:40;10.18;;;4.88;;
75700;SDS011;64321;48.796;44.740;2022-10-16T00:08:07;8.43;;;4.18;;
75700;SDS011;64321;48.796;44.740;2022-10-16T00:10:33;11.93;;;4.55;;
75700;SDS011;64321;48.796;44.740;2022-10-16T00:12:59;10.48;;;4.75;;
75700;SDS011;64321;48.796;44.740;2022-10-16T00:15:24;9.77;;;4.40;;
75700;SDS011;64321;48.796;44.740;2022-10-16T00:17:50;12.82;;;4.82;;
75700;SDS011;64321;48.796;44.740;2022-10-16T00:20:16;13.73;;;5.82;;
75700;SDS011;64321;48.796;44.740;2022-10-16T00:23:00;13.65;;;5.78;;
75700;SDS011;64321;48.796;44.740;2022-10-16T00:25:26;11.80;;;5.43;;
75700;SDS011;64321;48.796;44.740;2022-10-16T00:27:52;12.98;;;5.40;;
75700;SDS011;64321;48.796;44.740;2022-10-16T00:30:18;12.48;;;4.18;;
75700;SDS011;64321;48.796;44.740;2022-10-16T00:32:44;12.93;;;4.28;;
75700;SDS011;64321;48.796;44.740;2022-10-16T00:35:10;10.50;;;4.68;;
75700;SDS011;64321;48.796;44.740;2022-10-16T00:37:35;10.60;;;4.45;;
75700;SDS011;64321;48.796;44.740;2022-10-16T00:40:03;11.18;;;4.97;;
75700;SDS011;64321;48.796;44.740;2022-10-16T00:42:28;11.43;;;5.72;;
75700;SDS011;64321;48.796;44.740;2022-10-16T00:44:55;15.75;;;6.05;;
75700;SDS011;64321;48.796;44.740;2022-10-16T00:49:51;12.23;;;5.28;;
75700;SDS011;64321;48.796;44.740;2022-10-16T00:52:18;10.85;;;5.25;;
75700;SDS011;64321;48.796;44.740;2022-10-16T00:54:44;12.70;;;5.55;;
75700;SDS011;64321;48.796;44.740;2022-10-16T00:57:11;11.52;;;5.22;;
75700;SDS011;64321;48.796;44.740;2022-10-16T00:59:38;11.82;;;5.60;;
75700;SDS011;64321;48.796;44.740;2022-10-16T01:02:05;10.57;;;5.20;;
75700;SDS011;64321;48.796;44.740;2022-10-16T01:04:32;11.98;;;4.32;;
75700;SDS011;64321;48.796;44.740;2022-10-16T01:09:32;10.10;;;5.35;;
75700;SDS011;64321;48.796;44.740;2022-10-16T01:12:07;8.73;;;5.03;;
75700;SDS011;64321;48.796;44.740;2022-10-16T01:17:04;8.73;;;3.88;;
75700;SDS011;64321;48.796;44.740;2022-10-16T01:22:00;9.98;;;3.65;;
75700;SDS011;64321;48.796;44.740;2022-10-16T01:24:33;8.20;;;3.63;;
75700;SDS011;64321;48.796;44.740;2022-10-16T01:29:30;9.35;;;4.15;;
75700;SDS011;64321;48.796;44.740;2022-10-16T01:32:03;9.23;;;4.53;;
75700;SDS011;64321;48.796;44.740;2022-10-16T01:34:37;11.38;;;4.47;;
75700;SDS011;64321;48.796;44.740;2022-10-16T01:39:31;11.53;;;5.03;;
75700;SDS011;64321;48.796;44.740;2022-10-16T01:42:01;11.30;;;5.43;;
75700;SDS011;64321;48.796;44.740;2022-10-16T01:44:30;13.93;;;6.32;;
75700;SDS011;64321;48.796;44.740;2022-10-16T01:46:56;17.92;;;6.85;;
75700;SDS011;64321;48.796;44.740;2022-10-16T01:49:23;14.27;;;7.15;;
75700;SDS011;64321;48.796;44.740;2022-10-16T01:51:52;15.73;;;6.60;;
75700;SDS011;64321;48.796;44.740;2022-10-16T01:54:19;20.98;;;6.63;;
75700;SDS011;64321;48.796;44.740;2022-10-16T01:56:45;14.05;;;6.93;;
75700;SDS011;64321;48.796;44.740;2022-10-16T01:59:13;11.90;;;6.63;;
75700;SDS011;64321;48.796;44.740;2022-10-16T02:01:42;12.57;;;6.88;;
75700;SDS011;64321;48.796;44.740;2022-10-16T02:06:34;10.03;;;5.43;;
75700;SDS011;64321;48.796;44.740;2022-10-16T02:09:01;9.65;;;5.80;;
75700;SDS011;64321;48.796;44.740;2022-10-16T02:11:27;13.93;;;6.13;;
75700;SDS011;64321;48.796;44.740;2022-10-16T02:13:53;12.27;;;5.15;;
75700;SDS011;64321;48.796;44.740;2022-10-16T02:16:20;11.45;;;4.00;;
75700;SDS011;64321;48.796;44.740;2022-10-16T02:18:47;11.35;;;5.78;;
75700;SDS011;64321;48.796;44.740;2022-10-16T02:26:32;9.25;;;4.47;;
75700;SDS011;64321;48.796;44.740;2022-10-16T02:29:01;10.48;;;4.43;;
75700;SDS011;64321;48.796;44.740;2022-10-16T02:31:31;10.45;;;4.53;;
75700;SDS011;64321;48.796;44.740;2022-10-16T02:33:59;8.52;;;5.50;;
75700;SDS011;64321;48.796;44.740;2022-10-16T02:36:26;9.57;;;4.45;;
75700;SDS011;64321;48.796;44.740;2022-10-16T02:38:52;11.90;;;4.88;;
75700;SDS011;64321;48.796;44.740;2022-10-16T02:41:20;9.18;;;4.85;;
75700;SDS011;64321;48.796;44.740;2022-10-16T02:43:46;10.70;;;5.28;;
75700;SDS011;64321;48.796;44.740;2022-10-16T02:46:12;9.60;;;5.10;;
75700;SDS011;64321;48.796;44.740;2022-10-16T02:48:37;10.77;;;5.07;;
75700;SDS011;64321;48.796;44.740;2022-10-16T02:51:04;12.60;;;4.70;;
75700;SDS011;64321;48.796;44.740;2022-10-16T02:53:30;11.52;;;5.20;;
75700;SDS011;64321;48.796;44.740;2022-10-16T02:55:56;14.38;;;5.07;;
75700;SDS011;64321;48.796;44.740;2022-10-16T02:58:21;13.73;;;5.65;;
75700;SDS011;64321;48.796;44.740;2022-10-16T03:00:47;9.85;;;5.45;;
75700;SDS011;64321;48.796;44.740;2022-10-16T03:03:13;12.18;;;4.75;;
75700;SDS011;64321;48.796;44.740;2022-10-16T03:05:39;11.98;;;5.38;;
75700;SDS011;64321;48.796;44.740;2022-10-16T03:08:04;11.57;;;6.10;;
75700;SDS011;64321;48.796;44.740;2022-10-16T03:10:30;13.85;;;5.65;;
75700;SDS011;64321;48.796;44.740;2022-10-16T03:12:56;13.05;;;4.95;;
75700;SDS011;64321;48.796;44.740;2022-10-16T03:15:23;13.43;;;5.32;;
75700;SDS011;64321;48.796;44.740;2022-10-16T03:17:49;14.18;;;4.85;;
75700;SDS011;64321;48.796;44.740;2022-10-16T03:20:15;9.65;;;5.05;;
75700;SDS011;64321;48.796;44.740;2022-10-16T03:22:40;13.02;;;5.10;;
75700;SDS011;64321;48.796;44.740;2022-10-16T03:25:06;11.93;;;5.47;;
75700;SDS011;64321;48.796;44.740;2022-10-16T03:27:32;10.95;;;5.10;;
75700;SDS011;64321;48.796;44.740;2022-10-16T03:29:57;10.48;;;5.22;;
75700;SDS011;64321;48.796;44.740;2022-10-16T03:32:23;11.23;;;5.05;;
75700;SDS011;64321;48.796;44.740;2022-10-16T03:34:50;11.48;;;5.00;;
75700;SDS011;64321;48.796;44.740;2022-10-16T03:37:16;12.35;;;4.60;;
75700;SDS011;64321;48.796;44.740;2022-10-16T03:39:41;13.15;;;5.30;;
75700;SDS011;64321;48.796;44.740;2022-10-16T03:42:07;9.45;;;5.18;;
75700;SDS011;64321;48.796;44.740;2022-10-16T03:44:35;12.88;;;4.75;;
75700;SDS011;64321;48.796;44.740;2022-10-16T03:47:00;11.50;;;5.47;;
75700;SDS011;64321;48.796;44.740;2022-10-16T03:49:26;13.23;;;5.10;;
75700;SDS011;64321;48.796;44.740;2022-10-16T03:51:52;11.27;;;4.95;;
75700;SDS011;64321;48.796;44.740;2022-10-16T03:54:17;12.07;;;5.85;;
75700;SDS011;64321;48.796;44.740;2022-10-16T03:56:43;10.60;;;5.78;;
75700;SDS011;64321;48.796;44.740;2022-10-16T03:59:09;13.15;;;5.78;;
75700;SDS011;64321;48.796;44.740;2022-10-16T04:01:34;10.63;;;5.93;;
75700;SDS011;64321;48.796;44.740;2022-10-16T04:04:00;14.50;;;6.15;;
75700;SDS011;64321;48.796;44.740;2022-10-16T04:06:26;9.50;;;5.90;;
75700;SDS011;64321;48.796;44.740;2022-10-16T04:08:51;16.30;;;6.55;;
75700;SDS011;64321;48.796;44.740;2022-10-16T04:11:17;13.10;;;6.72;;
75700;SDS011;64321;48.796;44.740;2022-10-16T04:13:43;14.25;;;7.78;;
75700;SDS011;64321;48.796;44.740;2022-10-16T04:16:09;17.98;;;9.40;;
75700;SDS011;64321;48.796;44.740;2022-10-16T04:18:34;18.52;;;9.02;;
75700;SDS011;64321;48.796;44.740;2022-10-16T04:21:03;16.92;;;8.52;;
75700;SDS011;64321;48.796;44.740;2022-10-16T04:23:29;17.98;;;8.20;;
75700;SDS011;64321;48.796;44.740;2022-10-16T04:25:55;14.07;;;7.20;;
75700;SDS011;64321;48.796;44.740;2022-10-16T04:28:20;11.60;;;5.68;;
75700;SDS011;64321;48.796;44.740;2022-10-16T04:30:46;13.00;;;5.13;;
75700;SDS011;64321;48.796;44.740;2022-10-16T04:33:12;9.35;;;3.88;;
75700;SDS011;64321;48.796;44.740;2022-10-16T04:35:38;8.82;;;4.25;;
75700;SDS011;64321;48.796;44.740;2022-10-16T04:38:04;8.40;;;3.17;;
75700;SDS011;64321;48.796;44.740;2022-10-16T04:40:29;10.80;;;3.95;;
75700;SDS011;64321;48.796;44.740;2022-10-16T04:42:58;7.88;;;2.97;;
75700;SDS011;64321;48.796;44.740;2022-10-16T04:45:24;7.93;;;3.30;;
75700;SDS011;64321;48.796;44.740;2022-10-16T04:47:50;9.00;;;3.17;;
75700;SDS011;64321;48.796;44.740;2022-10-16T04:50:16;6.53;;;3.40;;
75700;SDS011;64321;48.796;44.740;2022-10-16T04:52:59;9.10;;;3.13;;
75700;SDS011;64321;48.796;44.740;2022-10-16T04:55:25;9.05;;;3.17;;
75700;SDS011;64321;48.796;44.740;2022-10-16T04:57:52;6.50;;;3.42;;
75700;SDS011;64321;48.796;44.740;2022-10-16T05:00:17;8.18;;;3.40;;
75700;SDS011;64321;48.796;44.740;2022-10-16T05:02:43;6.80;;;3.97;;
75700;SDS011;64321;48.796;44.740;2022-10-16T05:05:09;6.63;;;3.65;;
75700;SDS011;64321;48.796;44.740;2022-10-16T05:07:35;6.60;;;3.63;;
75700;SDS011;64321;48.796;44.740;2022-10-16T05:10:00;6.10;;;3.25;;
75700;SDS011;64321;48.796;44.740;2022-10-16T05:12:26;5.60;;;3.17;;
75700;SDS011;64321;48.796;44.740;2022-10-16T05:14:51;6.35;;;3.42;;
75700;SDS011;64321;48.796;44.740;2022-10-16T05:17:17;5.25;;;3.67;;
75700;SDS011;64321;48.796;44.740;2022-10-16T05:19:43;5.65;;;3.50;;
75700;SDS011;64321;48.796;44.740;2022-10-16T05:22:08;8.43;;;4.20;;
75700;SDS011;64321;48.796;44.740;2022-10-16T05:24:34;5.80;;;3.60;;
75700;SDS011;64321;48.796;44.740;2022-10-16T05:27:01;6.40;;;3.70;;
75700;SDS011;64321;48.796;44.740;2022-10-16T05:29:27;7.05;;;3.33;;
75700;SDS011;64321;48.796;44.740;2022-10-16T05:31:53;7.22;;;4.35;;
75700;SDS011;64321;48.796;44.740;2022-10-16T05:34:20;7.30;;;3.97;;
75700;SDS011;64321;48.796;44.740;2022-10-16T05:36:46;8.55;;;4.53;;
75700;SDS011;64321;48.796;44.740;2022-10-16T05:39:12;9.88;;;4.15;;
75700;SDS011;64321;48.796;44.740;2022-10-16T05:41:39;9.80;;;5.00;;
75700;SDS011;64321;48.796;44.740;2022-10-16T05:44:04;7.68;;;5.20;;
75700;SDS011;64321;48.796;44.740;2022-10-16T05:46:31;9.38;;;4.15;;
75700;SDS011;64321;48.796;44.740;2022-10-16T05:48:57;10.02;;;5.22;;
75700;SDS011;64321;48.796;44.740;2022-10-16T05:51:23;9.43;;;5.30;;
75700;SDS011;64321;48.796;44.740;2022-10-16T05:53:48;10.68;;;6.45;;
75700;SDS011;64321;48.796;44.740;2022-10-16T05:56:14;16.73;;;7.78;;
75700;SDS011;64321;48.796;44.740;2022-10-16T05:58:40;20.60;;;9.68;;
75700;SDS011;64321;48.796;44.740;2022-10-16T06:01:10;17.45;;;10.30;;
75700;SDS011;64321;48.796;44.740;2022-10-16T06:03:36;17.20;;;9.15;;
75700;SDS011;64321;48.796;44.740;2022-10-16T06:06:12;17.20;;;7.80;;
75700;SDS011;64321;48.796;44.740;2022-10-16T06:08:38;24.13;;;10.75;;
75700;SDS011;64321;48.796;44.740;2022-10-16T06:11:05;22.23;;;9.38;;
75700;SDS011;64321;48.796;44.740;2022-10-16T06:13:31;21.10;;;10.05;;
75700;SDS011;64321;48.796;44.740;2022-10-16T06:15:57;25.27;;;11.60;;
75700;SDS011;64321;48.796;44.740;2022-10-16T06:18:24;25.35;;;13.10;;
75700;SDS011;64321;48.796;44.740;2022-10-16T06:20:50;27.67;;;14.05;;
75700;SDS011;64321;48.796;44.740;2022-10-16T06:23:15;29.55;;;13.73;;
75700;SDS011;64321;48.796;44.740;2022-10-16T06:25:41;27.23;;;13.32;;
75700;SDS011;64321;48.796;44.740;2022-10-16T06:28:06;25.05;;;11.80;;
75700;SDS011;64321;48.796;44.740;2022-10-16T06:30:32;14.02;;;8.43;;
75700;SDS011;64321;48.796;44.740;2022-10-16T06:32:58;15.77;;;6.80;;
75700;SDS011;64321;48.796;44.740;2022-10-16T06:35:23;14.75;;;8.18;;
75700;SDS011;64321;48.796;44.740;2022-10-16T06:37:49;14.18;;;7.57;;
75700;SDS011;64321;48.796;44.740;2022-10-16T06:40:15;15.25;;;7.75;;
75700;SDS011;64321;48.796;44.740;2022-10-16T06:42:41;13.10;;;7.93;;
75700;SDS011;64321;48.796;44.740;2022-10-16T06:45:07;11.38;;;5.57;;
75700;SDS011;64321;48.796;44.740;2022-10-16T06:47:32;16.50;;;6.00;;
75700;SDS011;64321;48.796;44.740;2022-10-16T06:49:58;12.20;;;5.68;;
75700;SDS011;64321;48.796;44.740;2022-10-16T06:52:24;12.30;;;6.05;;
75700;SDS011;64321;48.796;44.740;2022-10-16T06:54:49;16.58;;;6.15;;
75700;SDS011;64321;48.796;44.740;2022-10-16T06:57:15;14.50;;;6.25;;
75700;SDS011;64321;48.796;44.740;2022-10-16T06:59:41;11.88;;;3.97;;
75700;SDS011;64321;48.796;44.740;2022-10-16T07:02:07;13.18;;;5.68;;
75700;SDS011;64321;48.796;44.740;2022-10-16T07:04:33;18.08;;;5.47;;
75700;SDS011;64321;48.796;44.740;2022-10-16T07:07:00;20.30;;;6.88;;
75700;SDS011;64321;48.796;44.740;2022-10-16T07:09:26;22.42;;;7.47;;
75700;SDS011;64321;48.796;44.740;2022-10-16T07:11:51;16.15;;;6.60;;
75700;SDS011;64321;48.796;44.740;2022-10-16T07:14:18;17.80;;;6.38;;
75700;SDS011;64321;48.796;44.740;2022-10-16T07:16:44;17.85;;;6.20;;
75700;SDS011;64321;48.796;44.740;2022-10-16T07:19:09;13.23;;;5.53;;
75700;SDS011;64321;48.796;44.740;2022-10-16T07:21:37;12.30;;;5.60;;
75700;SDS011;64321;48.796;44.740;2022-10-16T07:24:10;13.60;;;6.10;;
75700;SDS011;64321;48.796;44.740;2022-10-16T07:26:37;11.02;;;5.28;;
75700;SDS011;64321;48.796;44.740;2022-10-16T07:29:05;8.35;;;4.28;;
75700;SDS011;64321;48.796;44.740;2022-10-16T07:31:32;11.52;;;4.63;;
75700;SDS011;64321;48.796;44.740;2022-10-16T07:33:58;15.90;;;6.82;;
75700;SDS011;64321;48.796;44.740;2022-10-16T07:36:24;15.85;;;6.15;;
75700;SDS011;64321;48.796;44.740;2022-10-16T07:38:50;7.65;;;3.83;;
75700;SDS011;64321;48.796;44.740;2022-10-16T07:41:17;9.23;;;3.53;;
75700;SDS011;64321;48.796;44.740;2022-10-16T07:43:49;5.85;;;2.92;;
75700;SDS011;64321;48.796;44.740;2022-10-16T07:46:16;7.97;;;4.45;;
75700;SDS011;64321;48.796;44.740;2022-10-16T07:48:41;8.73;;;3.58;;
75700;SDS011;64321;48.796;44.740;2022-10-16T07:51:11;8.57;;;3.85;;
75700;SDS011;64321;48.796;44.740;2022-10-16T07:53:36;8.18;;;2.75;;
75700;SDS011;64321;48.796;44.740;2022-10-16T07:56:03;11.05;;;4.72;;
75700;SDS011;64321;48.796;44.740;2022-10-16T07:58:29;8.50;;;4.63;;
75700;SDS011;64321;48.796;44.740;2022-10-16T08:00:55;7.78;;;3.75;;
75700;SDS011;64321;48.796;44.740;2022-10-16T08:03:22;9.32;;;4.10;;
75700;SDS011;64321;48.796;44.740;2022-10-16T08:05:48;8.82;;;4.68;;
75700;SDS011;64321;48.796;44.740;2022-10-16T08:08:14;7.15;;;4.60;;
75700;SDS011;64321;48.796;44.740;2022-10-16T08:10:40;8.38;;;3.17;;
75700;SDS011;64321;48.796;44.740;2022-10-16T08:13:06;6.90;;;3.72;;
75700;SDS011;64321;48.796;44.740;2022-10-16T08:15:32;7.70;;;4.03;;
75700;SDS011;64321;48.796;44.740;2022-10-16T08:17:58;7.82;;;3.85;;
75700;SDS011;64321;48.796;44.740;2022-10-16T08:20:24;8.25;;;4.50;;
75700;SDS011;64321;48.796;44.740;2022-10-16T08:22:49;10.10;;;4.22;;
75700;SDS011;64321;48.796;44.740;2022-10-16T08:25:15;7.40;;;4.05;;
75700;SDS011;64321;48.796;44.740;2022-10-16T08:27:41;8.95;;;4.28;;
75700;SDS011;64321;48.796;44.740;2022-10-16T08:30:07;9.63;;;4.07;;
75700;SDS011;64321;48.796;44.740;2022-10-16T08:32:33;8.05;;;3.90;;
75700;SDS011;64321;48.796;44.740;2022-10-16T08:34:58;7.40;;;3.78;;
75700;SDS011;64321;48.796;44.740;2022-10-16T08:37:24;7.63;;;3.97;;
75700;SDS011;64321;48.796;44.740;2022-10-16T08:39:50;9.10;;;3.90;;
75700;SDS011;64321;48.796;44.740;2022-10-16T08:42:22;7.40;;;2.97;;
75700;SDS011;64321;48.796;44.740;2022-10-16T08:47:20;9.93;;;4.40;;
75700;SDS011;64321;48.796;44.740;2022-10-16T08:49:58;8.52;;;3.72;;
75700;SDS011;64321;48.796;44.740;2022-10-16T08:52:25;7.22;;;3.70;;
75700;SDS011;64321;48.796;44.740;2022-10-16T08:54:56;9.65;;;3.90;;
75700;SDS011;64321;48.796;44.740;2022-10-16T08:57:22;7.38;;;3.88;;
75700;SDS011;64321;48.796;44.740;2022-10-16T08:59:49;10.75;;;4.60;;
75700;SDS011;64321;48.796;44.740;2022-10-16T09:10:38;6.97;;;3.67;;
75700;SDS011;64321;48.796;44.740;2022-10-16T09:15:34;7.82;;;4.30;;
75700;SDS011;64321;48.796;44.740;2022-10-16T09:18:46;9.48;;;3.72;;
75700;SDS011;64321;48.796;44.740;2022-10-16T09:23:26;6.80;;;3.80;;
75700;SDS011;64321;48.796;44.740;2022-10-16T09:25:52;7.03;;;3.88;;
75700;SDS011;64321;48.796;44.740;2022-10-16T09:28:18;9.60;;;3.97;;
75700;SDS011;64321;48.796;44.740;2022-10-16T09:30:44;6.60;;;2.92;;
75700;SDS011;64321;48.796;44.740;2022-10-16T09:33:10;5.97;;;2.28;;
75700;SDS011;64321;48.796;44.740;2022-10-16T09:35:38;5.43;;;3.08;;
75700;SDS011;64321;48.796;44.740;2022-10-16T09:38:04;7.13;;;4.53;;
75700;SDS011;64321;48.796;44.740;2022-10-16T09:40:33;6.60;;;3.83;;
75700;SDS011;64321;48.796;44.740;2022-10-16T09:43:21;7.97;;;4.20;;
75700;SDS011;64321;48.796;44.740;2022-10-16T09:45:57;6.30;;;3.35;;
75700;SDS011;64321;48.796;44.740;2022-10-16T09:48:24;8.13;;;3.97;;
75700;SDS011;64321;48.796;44.740;2022-10-16T09:51:00;9.02;;;4.70;;
75700;SDS011;64321;48.796;44.740;2022-10-16T09:53:27;11.57;;;5.15;;
75700;SDS011;64321;48.796;44.740;2022-10-16T09:56:02;8.95;;;4.22;;
75700;SDS011;64321;48.796;44.740;2022-10-16T10:00:58;7.13;;;3.85;;
75700;SDS011;64321;48.796;44.740;2022-10-16T10:03:42;11.32;;;4.45;;
75700;SDS011;64321;48.796;44.740;2022-10-16T10:06:21;9.30;;;4.90;;
75700;SDS011;64321;48.796;44.740;2022-10-16T10:08:54;7.80;;;3.95;;
75700;SDS011;64321;48.796;44.740;2022-10-16T10:11:39;5.60;;;3.58;;
75700;SDS011;64321;48.796;44.740;2022-10-16T10:14:06;8.50;;;3.42;;
75700;SDS011;64321;48.796;44.740;2022-10-16T10:16:35;8.70;;;4.57;;
75700;SDS011;64321;48.796;44.740;2022-10-16T10:19:01;9.07;;;4.25;;
75700;SDS011;64321;48.796;44.740;2022-10-16T10:21:26;7.15;;;2.80;;
75700;SDS011;64321;48.796;44.740;2022-10-16T10:23:55;9.35;;;3.80;;
75700;SDS011;64321;48.796;44.740;2022-10-16T10:26:23;6.32;;;3.55;;
75700;SDS011;64321;48.796;44.740;2022-10-16T10:31:36;8.52;;;4.53;;
75700;SDS011;64321;48.796;44.740;2022-10-16T10:36:51;7.38;;;4.18;;
75700;SDS011;64321;48.796;44.740;2022-10-16T10:39:36;4.65;;;2.40;;
75700;SDS011;64321;48.796;44.740;2022-10-16T10:54:50;7.95;;;3.50;;
75700;SDS011;64321;48.796;44.740;2022-10-16T10:57:29;7.07;;;4.03;;
75700;SDS011;64321;48.796;44.740;2022-10-16T11:07:27;8.10;;;3.90;;
75700;SDS011;64321;48.796;44.740;2022-10-16T11:09:59;10.35;;;4.28;;
75700;SDS011;64321;48.796;44.740;2022-10-16T11:12:38;7.40;;;3.15;;
75700;SDS011;64321;48.796;44.740;2022-10-16T11:15:15;6.68;;;4.00;;
75700;SDS011;64321;48.796;44.740;2022-10-16T11:18:04;6.45;;;3.00;;
75700;SDS011;64321;48.796;44.740;2022-10-16T11:20:32;6.13;;;3.63;;
75700;SDS011;64321;48.796;44.740;2022-10-16T11:23:05;5.35;;;2.80;;
75700;SDS011;64321;48.796;44.740;2022-10-16T11:25:33;7.00;;;3.38;;
75700;SDS011;64321;48.796;44.740;2022-10-16T11:28:14;5.45;;;2.72;;
75700;SDS011;64321;48.796;44.740;2022-10-16T11:35:59;12.13;;;4.20;;
75700;SDS011;64321;48.796;44.740;2022-10-16T11:38:38;7.20;;;3.28;;
75700;SDS011;64321;48.796;44.740;2022-10-16T11:41:14;7.95;;;3.42;;
75700;SDS011;64321;48.796;44.740;2022-10-16T11:43:41;9.60;;;2.97;;
75700;SDS011;64321;48.796;44.740;2022-10-16T11:46:10;5.00;;;2.22;;
75700;SDS011;64321;48.796;44.740;2022-10-16T11:56:18;5.50;;;2.40;;
75700;SDS011;64321;48.796;44.740;2022-10-16T11:58:51;7.97;;;2.92;;
75700;SDS011;64321;48.796;44.740;2022-10-16T12:08:52;10.20;;;4.00;;
75700;SDS011;64321;48.796;44.740;2022-10-16T12:16:38;6.38;;;3.45;;
75700;SDS011;64321;48.796;44.740;2022-10-16T12:19:11;5.65;;;3.30;;
75700;SDS011;64321;48.796;44.740;2022-10-16T12:21:37;5.57;;;3.15;;
75700;SDS011;64321;48.796;44.740;2022-10-16T12:24:03;5.45;;;2.60;;
75700;SDS011;64321;48.796;44.740;2022-10-16T12:26:37;8.02;;;4.93;;
75700;SDS011;64321;48.796;44.740;2022-10-16T12:29:14;12.60;;;7.07;;
75700;SDS011;64321;48.796;44.740;2022-10-16T12:31:44;19.73;;;8.48;;
75700;SDS011;64321;48.796;44.740;2022-10-16T12:34:20;15.15;;;7.18;;
75700;SDS011;64321;48.796;44.740;2022-10-16T12:36:46;11.63;;;5.55;;
75700;SDS011;64321;48.796;44.740;2022-10-16T12:39:20;9.70;;;3.88;;
75700;SDS011;64321;48.796;44.740;2022-10-16T12:41:46;5.47;;;2.55;;
75700;SDS011;64321;48.796;44.740;2022-10-16T12:44:22;9.27;;;3.65;;
75700;SDS011;64321;48.796;44.740;2022-10-16T12:46:49;10.35;;;4.88;;
75700;SDS011;64321;48.796;44.740;2022-10-16T12:49:20;10.38;;;3.60;;
75700;SDS011;64321;48.796;44.740;2022-10-16T12:51:47;6.45;;;4.10;;
75700;SDS011;64321;48.796;44.740;2022-10-16T12:54:14;6.38;;;3.47;;
75700;SDS011;64321;48.796;44.740;2022-10-16T13:01:57;11.95;;;4.70;;
75700;SDS011;64321;48.796;44.740;2022-10-16T13:06:54;10.88;;;3.17;;
75700;SDS011;64321;48.796;44.740;2022-10-16T13:22:05;8.52;;;3.28;;
75700;SDS011;64321;48.796;44.740;2022-10-16T13:24:42;7.72;;;3.17;;
75700;SDS011;64321;48.796;44.740;2022-10-16T13:29:39;8.05;;;2.55;;
75700;SDS011;64321;48.796;44.740;2022-10-16T13:32:07;10.35;;;3.63;;
75700;SDS011;64321;48.796;44.740;2022-10-16T13:34:41;8.18;;;3.25;;
75700;SDS011;64321;48.796;44.740;2022-10-16T13:39:34;7.20;;;3.53;;
75700;SDS011;64321;48.796;44.740;2022-10-16T13:44:25;7.47;;;3.58;;
75700;SDS011;64321;48.796;44.740;2022-10-16T13:46:58;5.85;;;2.53;;
75700;SDS011;64321;48.796;44.740;2022-10-16T13:49:23;11.98;;;3.20;;
75700;SDS011;64321;48.796;44.740;2022-10-16T13:51:58;10.30;;;3.45;;
75700;SDS011;64321;48.796;44.740;2022-10-16T13:54:25;9.30;;;3.40;;
75700;SDS011;64321;48.796;44.740;2022-10-16T13:56:51;10.65;;;4.13;;
75700;SDS011;64321;48.796;44.740;2022-10-16T13:59:23;12.27;;;3.70;;
75700;SDS011;64321;48.796;44.740;2022-10-16T14:01:49;10.05;;;3.60;;
75700;SDS011;64321;48.796;44.740;2022-10-16T14:04:16;15.48;;;4.45;;
75700;SDS011;64321;48.796;44.740;2022-10-16T14:06:43;11.90;;;3.70;;
75700;SDS011;64321;48.796;44.740;2022-10-16T14:09:14;8.68;;;3.63;;
75700;SDS011;64321;48.796;44.740;2022-10-16T14:11:46;13.75;;;3.95;;
75700;SDS011;64321;48.796;44.740;2022-10-16T14:14:13;13.82;;;3.38;;
75700;SDS011;64321;48.796;44.740;2022-10-16T14:16:40;12.48;;;3.67;;
75700;SDS011;64321;48.796;44.740;2022-10-16T14:19:06;8.40;;;3.90;;
75700;SDS011;64321;48.796;44.740;2022-10-16T14:21:34;13.48;;;3.88;;
75700;SDS011;64321;48.796;44.740;2022-10-16T14:23:59;14.65;;;4.80;;
75700;SDS011;64321;48.796;44.740;2022-10-16T14:26:40;14.82;;;4.13;;
75700;SDS011;64321;48.796;44.740;2022-10-16T14:29:14;19.25;;;4.70;;
75700;SDS011;64321;48.796;44.740;2022-10-16T14:31:40;25.23;;;5.53;;
75700;SDS011;64321;48.796;44.740;2022-10-16T14:37:08;44.20;;;6.90;;
75700;SDS011;64321;48.796;44.740;2022-10-16T14:39:34;43.03;;;7.07;;
75700;SDS011;64321;48.796;44.740;2022-10-16T14:42:00;46.67;;;9.45;;
75700;SDS011;64321;48.796;44.740;2022-10-16T14:44:28;44.50;;;8.98;;
75700;SDS011;64321;48.796;44.740;2022-10-16T14:46:54;61.45;;;9.15;;
75700;SDS011;64321;48.796;44.740;2022-10-16T14:49:20;49.58;;;8.88;;
75700;SDS011;64321;48.796;44.740;2022-10-16T14:51:47;53.63;;;9.50;;
75700;SDS011;64321;48.796;44.740;2022-10-16T14:54:14;49.53;;;9.18;;
75700;SDS011;64321;48.796;44.740;2022-10-16T14:59:14;49.30;;;9.43;;
75700;SDS011;64321;48.796;44.740;2022-10-16T15:01:42;53.03;;;8.85;;
75700;SDS011;64321;48.796;44.740;2022-10-16T15:04:09;62.22;;;10.80;;
75700;SDS011;64321;48.796;44.740;2022-10-16T15:06:36;53.08;;;10.05;;
75700;SDS011;64321;48.796;44.740;2022-10-16T15:09:02;63.20;;;10.45;;
75700;SDS011;64321;48.796;44.740;2022-10-16T15:11:28;62.15;;;10.82;;
75700;SDS011;64321;48.796;44.740;2022-10-16T15:13:53;54.13;;;9.85;;
75700;SDS011;64321;48.796;44.740;2022-10-16T15:16:19;42.42;;;10.35;;
75700;SDS011;64321;48.796;44.740;2022-10-16T15:18:45;49.35;;;10.20;;
75700;SDS011;64321;48.796;44.740;2022-10-16T15:21:15;47.88;;;9.25;;
75700;SDS011;64321;48.796;44.740;2022-10-16T15:23:48;46.53;;;9.70;;
75700;SDS011;64321;48.796;44.740;2022-10-16T15:26:13;40.03;;;8.05;;
75700;SDS011;64321;48.796;44.740;2022-10-16T15:28:39;37.65;;;9.05;;
75700;SDS011;64321;48.796;44.740;2022-10-16T15:31:05;39.40;;;10.52;;
75700;SDS011;64321;48.796;44.740;2022-10-16T15:33:30;48.63;;;9.85;;
75700;SDS011;64321;48.796;44.740;2022-10-16T15:35:59;38.85;;;9.55;;
75700;SDS011;64321;48.796;44.740;2022-10-16T15:38:25;41.20;;;9.63;;
75700;SDS011;64321;48.796;44.740;2022-10-16T15:40:53;32.47;;;8.25;;
75700;SDS011;64321;48.796;44.740;2022-10-16T15:43:18;34.05;;;9.50;;
75700;SDS011;64321;48.796;44.740;2022-10-16T15:45:46;34.47;;;8.15;;
75700;SDS011;64321;48.796;44.740;2022-10-16T15:48:17;29.27;;;8.68;;
75700;SDS011;64321;48.796;44.740;2022-10-16T15:50:43;29.48;;;10.05;;
75700;SDS011;64321;48.796;44.740;2022-10-16T15:53:08;32.03;;;11.02;;
75700;SDS011;64321;48.796;44.740;2022-10-16T15:55:34;33.88;;;11.13;;
75700;SDS011;64321;48.796;44.740;2022-10-16T15:58:03;40.78;;;11.73;;
75700;SDS011;64321;48.796;44.740;2022-10-16T16:00:28;41.42;;;11.18;;
75700;SDS011;64321;48.796;44.740;2022-10-16T16:02:54;37.72;;;10.30;;
75700;SDS011;64321;48.796;44.740;2022-10-16T16:05:20;38.22;;;11.00;;
75700;SDS011;64321;48.796;44.740;2022-10-16T16:07:46;42.08;;;12.00;;
75700;SDS011;64321;48.796;44.740;2022-10-16T16:10:12;39.33;;;12.93;;
75700;SDS011;64321;48.796;44.740;2022-10-16T16:12:38;27.13;;;10.32;;
75700;SDS011;64321;48.796;44.740;2022-10-16T16:15:04;33.85;;;9.60;;
75700;SDS011;64321;48.796;44.740;2022-10-16T16:17:31;28.80;;;9.48;;
75700;SDS011;64321;48.796;44.740;2022-10-16T16:19:57;26.98;;;8.93;;
75700;SDS011;64321;48.796;44.740;2022-10-16T16:22:22;21.65;;;8.60;;
75700;SDS011;64321;48.796;44.740;2022-10-16T16:24:48;25.55;;;7.95;;
75700;SDS011;64321;48.796;44.740;2022-10-16T16:27:14;21.95;;;7.78;;
75700;SDS011;64321;48.796;44.740;2022-10-16T16:29:40;21.08;;;6.80;;
75700;SDS011;64321;48.796;44.740;2022-10-16T16:32:05;21.90;;;7.97;;
75700;SDS011;64321;48.796;44.740;2022-10-16T16:34:31;23.55;;;7.82;;